York, New York
Current Conditions -  °F | °C
As of 7:54 AM on Sunday 21 Dec 2014 (Local Time) from KROC Reporting Station
Scattered Clouds Scattered Clouds  
Wind Chill: 27°   Ceiling: Unl
Heat Index: 27°   Visibility: 9mi
Dew Point: 22°   Wind: 3mph
Humidity: 81%   Direction: 230°SW
Pressure: 30.31"   Gusts: NA
Location:  42.87°N, 77.89°W
Report Text: KROC 211254Z 23003KT 9SM SCT095 M03/M06 A3031 RMK AO2 SLP274 T10281056
Loading
Personal Weather Stations






























Interactive Weather Map New forecast layout! Learn more

10-Day Weather Forecast

Advertisements
Track Severe Weather on mobile